Time;durP1;ratioP1;P1;durP2;ratioP2;P2;SDS_P1;SDS_P2;PMS_P1;PMS_P2;Temp;Humidity;BMP_temperature;BMP_pressure;BME280_temperature;BME280_humidity;BME280_pressure;Samples;Min_cycle;Max_cycle;Signal;HPM_P1;HPM_P2
2020/12/20 00:01:14;;;;;;;37.88;25.17;;;8.30;99.90;;;;;;6212350;23;20004;-79
2020/12/20 00:03:40;;;;;;;43.20;25.35;;;8.30;99.90;;;;;;6212105;23;20019;-80
2020/12/20 00:06:06;;;;;;;51.25;26.55;;;8.30;99.90;;;;;;6213745;23;20009;-80
2020/12/20 00:08:31;;;;;;;40.75;26.13;;;8.20;99.90;;;;;;6212101;23;20051;-79
2020/12/20 00:10:57;;;;;;;41.55;24.95;;;8.20;99.90;;;;;;6213873;23;20000;-80
2020/12/20 00:13:23;;;;;;;41.80;25.55;;;8.20;99.90;;;;;;6211942;23;20005;-79
2020/12/20 00:15:48;;;;;;;41.80;26.50;;;8.20;99.90;;;;;;6213952;23;20004;-79
2020/12/20 00:18:14;;;;;;;48.45;27.33;;;8.20;99.90;;;;;;6213623;23;20009;-80
2020/12/20 00:20:40;;;;;;;46.72;26.52;;;8.10;99.90;;;;;;6213456;23;20448;-79
2020/12/20 00:23:06;;;;;;;47.15;28.58;;;8.20;99.90;;;;;;6212059;23;20437;-79
2020/12/20 00:25:31;;;;;;;46.70;27.00;;;8.20;99.90;;;;;;6213351;23;20096;-79
2020/12/20 00:27:57;;;;;;;45.85;26.38;;;8.20;99.90;;;;;;6213803;23;20003;-79
2020/12/20 00:30:23;;;;;;;42.53;26.27;;;8.20;99.90;;;;;;6213596;23;20083;-80
2020/12/20 00:32:51;;;;;;;44.47;27.67;;;8.20;99.90;;;;;;6213538;23;20007;-79
2020/12/20 00:35:18;;;;;;;46.00;28.17;;;8.20;99.90;;;;;;6211967;23;20336;-79
2020/12/20 00:37:43;;;;;;;43.58;27.25;;;8.20;99.90;;;;;;6213352;23;20007;-79
2020/12/20 00:40:10;;;;;;;44.47;26.85;;;8.20;99.90;;;;;;6213711;23;20008;-79
2020/12/20 00:42:35;;;;;;;46.97;26.63;;;8.20;99.90;;;;;;6211843;23;20008;-80
2020/12/20 00:45:01;;;;;;;62.17;32.35;;;8.20;99.90;;;;;;6211673;23;20005;-79
2020/12/20 00:47:26;;;;;;;60.40;32.65;;;8.20;99.90;;;;;;6213190;23;20076;-79
2020/12/20 00:49:52;;;;;;;47.55;30.23;;;8.20;99.90;;;;;;6213465;23;20003;-80
2020/12/20 00:52:18;;;;;;;54.60;29.95;;;8.20;99.90;;;;;;6211912;23;20498;-79
2020/12/20 00:54:43;;;;;;;44.63;27.38;;;8.20;99.90;;;;;;6211470;23;20028;-79
2020/12/20 00:57:09;;;;;;;42.63;26.75;;;8.20;99.90;;;;;;6211570;23;20021;-79
2020/12/20 00:59:35;;;;;;;48.03;29.63;;;8.20;99.90;;;;;;6213180;23;20005;-79
2020/12/20 01:02:00;;;;;;;49.47;29.20;;;8.20;99.90;;;;;;6212981;23;20000;-79
2020/12/20 01:04:26;;;;;;;58.85;31.20;;;8.20;99.90;;;;;;6213114;23;20011;-80
2020/12/20 01:06:56;;;;;;;50.70;30.83;;;8.20;99.90;;;;;;6213059;23;20167;-80
2020/12/20 01:09:22;;;;;;;53.42;29.75;;;8.10;99.90;;;;;;6211685;23;20371;-79
2020/12/20 01:11:49;;;;;;;45.00;27.95;;;8.10;99.90;;;;;;6212969;23;20073;-80
2020/12/20 01:14:14;;;;;;;41.63;26.33;;;8.10;99.90;;;;;;6211623;23;20005;-80
2020/12/20 01:16:40;;;;;;;48.85;29.50;;;8.10;99.90;;;;;;6213170;23;20462;-79
2020/12/20 01:19:06;;;;;;;45.53;28.20;;;8.10;99.90;;;;;;6213251;23;20009;-79
2020/12/20 01:21:33;;;;;;;49.00;29.85;;;8.10;99.90;;;;;;6212990;23;20000;-80
2020/12/20 01:23:59;;;;;;;51.03;27.92;;;8.10;99.90;;;;;;6213071;23;20373;-79
2020/12/20 01:26:28;;;;;;;43.92;28.55;;;8.10;99.90;;;;;;6213030;23;20005;-79
2020/12/20 01:28:55;;;;;;;52.00;29.63;;;8.20;99.90;;;;;;6213201;23;20001;-79
2020/12/20 01:31:20;;;;;;;45.75;28.70;;;8.10;99.90;;;;;;6212953;23;20005;-79
2020/12/20 01:33:46;;;;;;;46.03;26.83;;;8.20;99.90;;;;;;6212994;23;20001;-79
2020/12/20 01:36:13;;;;;;;47.45;27.88;;;8.10;99.90;;;;;;6212704;23;20067;-80
2020/12/20 01:38:40;;;;;;;49.13;27.85;;;8.10;99.90;;;;;;6213071;23;20444;-80
2020/12/20 01:41:07;;;;;;;44.03;26.70;;;8.10;99.90;;;;;;6212955;23;20039;-79
2020/12/20 01:43:51;;;;;;;49.03;29.02;;;8.10;99.90;;;;;;6212662;23;20027;-79
2020/12/20 01:46:19;;;;;;;43.38;27.58;;;8.10;99.90;;;;;;6212801;23;20036;-79
2020/12/20 01:48:46;;;;;;;46.33;29.02;;;8.10;99.90;;;;;;6212924;23;20451;-80
2020/12/20 01:51:12;;;;;;;46.13;27.90;;;8.10;99.90;;;;;;6212715;23;20055;-79
2020/12/20 01:53:39;;;;;;;50.60;29.42;;;8.10;99.90;;;;;;6212816;23;19997;-79
2020/12/20 01:56:08;;;;;;;42.95;27.10;;;8.10;99.90;;;;;;6212695;23;20009;-79
2020/12/20 01:58:37;;;;;;;48.35;28.45;;;8.10;99.90;;;;;;6212982;23;20015;-79
2020/12/20 02:01:08;;;;;;;46.45;28.05;;;8.10;99.90;;;;;;6211348;23;20082;-80
2020/12/20 02:03:38;;;;;;;46.92;27.92;;;8.10;99.90;;;;;;6212363;23;20039;-79
2020/12/20 02:06:05;;;;;;;49.42;29.02;;;8.10;99.90;;;;;;6213943;23;20059;-72
2020/12/20 02:08:31;;;;;;;44.75;29.25;;;8.10;99.90;;;;;;6213001;23;20328;-72
2020/12/20 02:11:26;;;;;;;47.85;30.17;;;8.10;99.90;;;;;;6214176;23;19997;-72
2020/12/20 02:13:55;;;;;;;51.47;30.42;;;8.10;99.90;;;;;;6182265;23;20008;-72
2020/12/20 02:16:22;;;;;;;48.72;29.00;;;8.10;99.90;;;;;;6213619;23;19996;-73
2020/12/20 02:18:51;;;;;;;56.60;32.70;;;8.10;99.90;;;;;;6214662;23;20011;-73
2020/12/20 02:21:22;;;;;;;59.80;34.22;;;8.10;99.90;;;;;;6214732;23;20008;-73
2020/12/20 02:23:50;;;;;;;60.15;34.13;;;8.10;99.90;;;;;;6214672;23;20012;-72
2020/12/20 02:26:20;;;;;;;56.25;30.88;;;8.10;99.90;;;;;;6214661;23;20000;-72
2020/12/20 02:28:53;;;;;;;59.50;31.23;;;8.10;99.90;;;;;;6213201;23;20005;-72
2020/12/20 02:31:19;;;;;;;53.78;30.65;;;8.10;99.90;;;;;;6213204;23;20076;-72
2020/12/20 02:33:45;;;;;;;50.15;28.80;;;8.10;99.90;;;;;;6214536;23;20004;-72
2020/12/20 02:36:12;;;;;;;50.08;29.80;;;8.10;99.90;;;;;;6214574;23;20004;-73
2020/12/20 02:38:37;;;;;;;49.35;30.52;;;8.10;99.90;;;;;;6214646;23;20459;-73
2020/12/20 02:41:03;;;;;;;55.30;31.27;;;8.10;99.90;;;;;;6212879;23;20004;-72
2020/12/20 02:43:29;;;;;;;50.50;30.45;;;8.10;99.90;;;;;;6214399;23;20486;-72
2020/12/20 02:45:55;;;;;;;50.15;30.85;;;8.10;99.90;;;;;;6215015;23;20016;-72
2020/12/20 02:48:20;;;;;;;51.75;31.25;;;8.10;99.90;;;;;;6215176;23;19996;-73
2020/12/20 02:50:46;;;;;;;47.15;29.48;;;8.10;99.90;;;;;;6213547;23;20007;-72
2020/12/20 02:53:12;;;;;;;56.03;31.83;;;8.10;99.90;;;;;;6214887;23;20004;-73
2020/12/20 02:55:38;;;;;;;49.50;30.20;;;8.10;99.90;;;;;;6213366;23;20120;-73
2020/12/20 02:58:07;;;;;;;47.28;28.92;;;8.10;99.90;;;;;;6215088;23;20398;-73
2020/12/20 03:00:36;;;;;;;44.08;27.50;;;8.00;99.90;;;;;;6215232;23;20103;-73
2020/12/20 03:03:02;;;;;;;45.72;27.13;;;8.00;99.90;;;;;;6215030;23;20436;-72
2020/12/20 03:05:30;;;;;;;46.72;29.17;;;8.00;99.90;;;;;;6214852;23;20043;-73
2020/12/20 03:07:56;;;;;;;48.72;28.33;;;8.00;99.90;;;;;;6213384;23;20000;-72
2020/12/20 03:10:22;;;;;;;53.72;31.00;;;8.00;99.90;;;;;;6215112;23;20004;-73
2020/12/20 03:12:47;;;;;;;54.38;29.98;;;8.00;99.90;;;;;;6214789;23;20005;-73
2020/12/20 03:15:13;;;;;;;51.97;29.45;;;8.00;99.90;;;;;;6213501;23;20005;-73
2020/12/20 03:17:39;;;;;;;54.55;31.45;;;8.00;99.90;;;;;;6213163;23;20127;-72
2020/12/20 03:20:08;;;;;;;54.17;31.90;;;8.00;99.90;;;;;;6214999;23;19996;-73
2020/12/20 03:22:33;;;;;;;55.55;32.00;;;8.00;99.90;;;;;;6214659;23;20298;-73
2020/12/20 03:24:59;;;;;;;53.88;31.20;;;8.00;99.90;;;;;;6214695;23;20005;-73
2020/12/20 03:27:25;;;;;;;56.75;31.63;;;8.00;99.90;;;;;;6213096;23;20100;-73
2020/12/20 03:29:51;;;;;;;50.60;29.67;;;8.00;99.90;;;;;;6214958;23;20160;-72
2020/12/20 03:32:16;;;;;;;47.60;29.80;;;8.00;99.90;;;;;;6214876;23;20027;-73
2020/12/20 03:34:42;;;;;;;50.08;28.55;;;8.10;99.90;;;;;;6214602;23;20079;-73
2020/12/20 03:37:08;;;;;;;50.70;29.05;;;8.10;99.90;;;;;;6214823;23;20059;-72
2020/12/20 03:39:33;;;;;;;44.58;27.98;;;8.10;99.90;;;;;;6213107;23;20039;-72
2020/12/20 03:41:59;;;;;;;48.25;27.00;;;8.10;99.90;;;;;;6214538;23;20344;-73
2020/12/20 03:44:25;;;;;;;48.15;28.95;;;8.10;99.90;;;;;;6214677;23;20000;-73
2020/12/20 03:46:54;;;;;;;44.45;27.20;;;8.10;99.90;;;;;;6212506;23;20004;-72
2020/12/20 03:49:19;;;;;;;49.30;28.38;;;8.20;99.90;;;;;;6213060;23;20001;-73
2020/12/20 03:51:45;;;;;;;50.53;30.67;;;8.10;99.90;;;;;;6214674;23;20011;-73
2020/12/20 03:54:11;;;;;;;50.88;28.15;;;8.10;99.90;;;;;;6214447;23;20007;-73
2020/12/20 03:56:36;;;;;;;44.38;27.58;;;8.10;99.90;;;;;;6212623;23;20046;-73
2020/12/20 03:59:02;;;;;;;49.33;28.40;;;8.10;99.90;;;;;;6214600;23;20440;-73
2020/12/20 04:01:28;;;;;;;42.10;26.25;;;8.10;99.90;;;;;;6214538;23;20310;-73
2020/12/20 04:03:54;;;;;;;46.75;26.98;;;8.10;99.90;;;;;;6214316;23;20000;-73
2020/12/20 04:06:19;;;;;;;45.28;27.02;;;8.10;99.90;;;;;;6214427;23;20005;-72
2020/12/20 04:08:45;;;;;;;48.25;28.58;;;8.10;99.90;;;;;;6212711;23;20548;-72
2020/12/20 04:11:11;;;;;;;50.70;28.98;;;8.10;99.90;;;;;;6214375;23;20047;-73
2020/12/20 04:13:37;;;;;;;50.53;28.95;;;8.10;99.90;;;;;;6214245;23;20001;-72
2020/12/20 04:16:07;;;;;;;53.95;29.42;;;8.00;99.90;;;;;;6212646;23;20004;-73
2020/12/20 04:18:35;;;;;;;47.33;28.33;;;8.00;99.90;;;;;;6212641;23;20084;-72
2020/12/20 04:21:04;;;;;;;49.83;29.33;;;8.00;99.90;;;;;;6212836;23;20339;-72
2020/12/20 04:23:30;;;;;;;43.28;28.17;;;8.00;99.90;;;;;;6214238;23;20294;-73
2020/12/20 04:25:55;;;;;;;48.97;29.75;;;8.10;99.90;;;;;;6212666;23;20005;-73
2020/12/20 04:28:21;;;;;;;49.45;29.30;;;8.10;99.90;;;;;;6214121;23;20175;-73
2020/12/20 04:30:47;;;;;;;50.88;30.95;;;8.10;99.90;;;;;;6214268;23;19996;-72
2020/12/20 04:33:13;;;;;;;48.88;31.30;;;8.10;99.90;;;;;;6214154;23;20054;-72
2020/12/20 04:35:39;;;;;;;56.80;33.08;;;8.10;99.90;;;;;;6213913;23;20269;-73
2020/12/20 04:38:05;;;;;;;59.97;33.55;;;8.10;99.90;;;;;;6213967;23;20130;-72
2020/12/20 04:40:31;;;;;;;54.22;32.08;;;8.10;99.90;;;;;;6214071;23;20048;-73
2020/12/20 04:43:14;;;;;;;52.33;30.27;;;8.10;99.90;;;;;;6214057;23;20008;-72
2020/12/20 04:45:43;;;;;;;52.55;30.92;;;8.10;99.90;;;;;;6213851;23;20080;-72
2020/12/20 04:48:11;;;;;;;57.38;32.15;;;8.10;99.90;;;;;;6214260;23;20382;-72
2020/12/20 04:50:39;;;;;;;46.28;28.67;;;8.10;99.90;;;;;;6214123;23;20067;-73
2020/12/20 04:53:06;;;;;;;46.00;27.75;;;8.10;99.90;;;;;;6213888;23;19996;-72
2020/12/20 04:55:32;;;;;;;44.45;27.48;;;8.10;99.90;;;;;;6213928;23;20008;-73
2020/12/20 04:57:57;;;;;;;47.22;29.40;;;8.10;99.90;;;;;;6212531;23;20009;-73
2020/12/20 05:00:23;;;;;;;48.45;30.52;;;8.10;99.90;;;;;;6213857;23;20345;-72
2020/12/20 05:02:49;;;;;;;61.53;32.63;;;8.10;99.90;;;;;;6213927;23;20028;-73
2020/12/20 05:05:15;;;;;;;56.50;34.85;;;8.10;99.90;;;;;;6213541;23;20001;-73
2020/12/20 05:07:41;;;;;;;66.63;36.38;;;8.00;99.90;;;;;;6213956;23;20024;-72
2020/12/20 05:10:10;;;;;;;58.97;34.03;;;8.00;99.90;;;;;;6212251;23;20050;-73
2020/12/20 05:12:37;;;;;;;62.70;34.42;;;8.10;99.90;;;;;;6213792;23;19997;-73
2020/12/20 05:15:23;;;;;;;52.55;34.03;;;8.10;99.90;;;;;;6212072;23;20039;-73
2020/12/20 05:18:06;;;;;;;63.10;34.65;;;8.10;99.90;;;;;;6212212;23;20008;-73
2020/12/20 05:20:38;;;;;;;58.78;34.75;;;8.10;99.90;;;;;;6213756;23;20017;-73
2020/12/20 05:23:05;;;;;;;57.75;32.25;;;8.00;99.90;;;;;;6213555;23;19996;-73
2020/12/20 05:25:32;;;;;;;57.33;32.53;;;8.00;99.90;;;;;;6213795;23;20004;-72
2020/12/20 05:28:08;;;;;;;55.53;32.88;;;8.00;99.90;;;;;;6213598;23;20007;-73
2020/12/20 05:30:33;;;;;;;54.10;31.02;;;8.00;99.90;;;;;;6213548;23;20103;-73
2020/12/20 05:32:59;;;;;;;58.80;32.40;;;8.00;99.90;;;;;;6213964;23;20052;-73
2020/12/20 05:35:25;;;;;;;54.65;33.38;;;8.00;99.90;;;;;;6214448;23;20008;-73
2020/12/20 05:37:51;;;;;;;57.80;34.90;;;8.00;99.90;;;;;;6213395;23;20084;-73
2020/12/20 05:40:35;;;;;;;72.40;37.05;;;8.00;99.90;;;;;;6214695;23;20024;-73
2020/12/20 05:43:05;;;;;;;63.28;35.05;;;7.90;99.90;;;;;;6214909;23;20071;-73
2020/12/20 05:45:33;;;;;;;60.80;34.83;;;8.00;99.90;;;;;;6213608;23;20001;-73
2020/12/20 05:48:13;;;;;;;57.55;34.67;;;8.00;99.90;;;;;;6211995;23;20083;-73
2020/12/20 05:50:39;;;;;;;64.88;34.65;;;8.00;99.90;;;;;;6211959;23;20484;-73
2020/12/20 05:53:05;;;;;;;55.63;33.33;;;8.00;99.90;;;;;;6211919;23;20001;-73
2020/12/20 05:55:39;;;;;;;60.90;36.33;;;8.00;99.90;;;;;;6211659;23;20004;-73
2020/12/20 05:58:12;;;;;;;57.10;34.28;;;8.00;99.90;;;;;;6211990;23;20006;-73
2020/12/20 06:00:43;;;;;;;62.53;35.10;;;8.00;99.90;;;;;;6213642;23;20054;-73
2020/12/20 06:03:10;;;;;;;58.38;33.05;;;8.10;99.90;;;;;;6212057;23;20032;-73
2020/12/20 06:05:38;;;;;;;59.50;34.42;;;8.10;99.90;;;;;;6213197;23;20005;-73
2020/12/20 06:08:06;;;;;;;57.95;34.38;;;8.10;99.90;;;;;;6212036;23;20001;-73
2020/12/20 06:10:38;;;;;;;51.88;31.13;;;8.10;99.90;;;;;;6211753;23;20008;-73
2020/12/20 06:13:07;;;;;;;52.25;30.90;;;8.10;99.90;;;;;;6213465;23;20306;-73
2020/12/20 06:15:36;;;;;;;59.22;33.25;;;8.10;99.90;;;;;;6213513;23;19992;-74
2020/12/20 06:18:07;;;;;;;57.03;32.80;;;8.10;99.90;;;;;;6213344;23;20004;-73
2020/12/20 06:20:37;;;;;;;56.30;32.35;;;8.10;99.90;;;;;;6213609;23;20001;-73
2020/12/20 06:23:03;;;;;;;63.15;34.13;;;8.00;99.90;;;;;;6213567;23;20001;-73
2020/12/20 06:25:29;;;;;;;60.13;34.60;;;8.10;99.90;;;;;;6211513;23;20059;-73
2020/12/20 06:28:04;;;;;;;65.45;36.22;;;8.10;99.90;;;;;;6213519;23;20031;-73
2020/12/20 06:30:30;;;;;;;63.00;34.17;;;8.10;99.90;;;;;;6213526;23;20079;-73
2020/12/20 06:33:01;;;;;;;66.47;35.97;;;8.00;99.90;;;;;;6211705;23;20039;-73
2020/12/20 06:35:30;;;;;;;64.93;36.13;;;8.00;99.90;;;;;;6213448;23;20001;-73
2020/12/20 06:37:57;;;;;;;66.88;36.67;;;8.00;99.90;;;;;;6213294;23;20001;-73
2020/12/20 06:40:31;;;;;;;62.88;36.55;;;8.10;99.90;;;;;;6213484;23;20112;-73
2020/12/20 06:43:00;;;;;;;66.38;37.53;;;8.10;99.90;;;;;;6213307;23;20011;-73
2020/12/20 06:45:30;;;;;;;66.78;36.22;;;8.10;99.90;;;;;;6213073;23;20007;-73
2020/12/20 06:48:07;;;;;;;70.93;36.55;;;8.10;99.90;;;;;;6213216;23;20433;-73
2020/12/20 06:50:39;;;;;;;57.95;34.55;;;8.10;99.90;;;;;;6211571;23;20329;-73
2020/12/20 06:53:05;;;;;;;57.03;34.38;;;8.10;99.90;;;;;;6213162;23;20008;-73
2020/12/20 06:55:31;;;;;;;64.60;34.90;;;8.10;99.90;;;;;;6213017;23;20433;-74
2020/12/20 06:58:05;;;;;;;61.95;34.67;;;8.10;99.90;;;;;;6211757;23;20395;-73
2020/12/20 07:00:55;;;;;;;59.35;34.40;;;8.10;99.90;;;;;;6212766;23;20507;-73
2020/12/20 07:03:30;;;;;;;67.50;35.55;;;8.10;99.90;;;;;;6213469;23;20376;-73
2020/12/20 07:06:08;;;;;;;66.80;36.00;;;8.10;99.90;;;;;;6212787;23;20011;-73
2020/12/20 07:08:35;;;;;;;74.38;39.50;;;8.00;99.90;;;;;;6215041;23;20001;-73
2020/12/20 07:11:02;;;;;;;71.68;39.63;;;8.00;99.90;;;;;;6215175;23;20003;-73
2020/12/20 07:13:39;;;;;;;66.15;37.35;;;8.00;99.90;;;;;;6214693;23;20024;-73
2020/12/20 07:16:12;;;;;;;70.28;38.72;;;8.00;99.90;;;;;;6214802;23;20004;-73
2020/12/20 07:18:41;;;;;;;73.13;37.78;;;8.00;99.90;;;;;;6214737;23;20091;-73
2020/12/20 07:21:10;;;;;;;70.57;39.17;;;8.10;99.90;;;;;;6214999;23;20009;-73
2020/12/20 07:23:40;;;;;;;73.40;38.80;;;8.10;99.90;;;;;;6214756;23;20328;-73
2020/12/20 07:26:06;;;;;;;69.35;37.83;;;8.10;99.90;;;;;;6213050;23;20009;-73
2020/12/20 07:28:32;;;;;;;67.43;39.50;;;8.10;99.90;;;;;;6214888;23;20429;-73
2020/12/20 07:30:58;;;;;;;74.30;41.60;;;8.10;99.90;;;;;;6213129;23;20000;-73
2020/12/20 07:33:23;;;;;;;72.25;40.35;;;8.10;99.90;;;;;;6214396;23;20001;-73
2020/12/20 07:35:49;;;;;;;70.03;39.97;;;8.10;99.90;;;;;;6214805;23;20459;-73
2020/12/20 07:38:15;;;;;;;77.80;40.40;;;8.10;99.90;;;;;;6212974;23;20436;-73
2020/12/20 07:40:41;;;;;;;72.93;42.17;;;8.20;99.90;;;;;;6214669;23;20433;-73
2020/12/20 07:43:07;;;;;;;81.13;41.53;;;8.20;99.90;;;;;;6212515;23;20004;-73
2020/12/20 07:45:33;;;;;;;71.10;39.42;;;8.20;99.90;;;;;;6214579;23;20051;-73
2020/12/20 07:47:59;;;;;;;70.63;39.30;;;8.20;99.90;;;;;;6214664;23;20091;-73
2020/12/20 07:50:26;;;;;;;70.13;39.85;;;8.20;99.90;;;;;;6214425;23;20429;-73
2020/12/20 07:52:52;;;;;;;67.65;40.13;;;8.20;99.90;;;;;;6214549;23;20023;-73
2020/12/20 07:55:18;;;;;;;69.70;40.20;;;8.20;99.90;;;;;;6214398;23;19989;-73
2020/12/20 07:57:46;;;;;;;67.80;37.55;;;8.20;99.90;;;;;;6214450;23;20020;-73
2020/12/20 08:00:12;;;;;;;69.25;36.70;;;8.20;99.90;;;;;;6214356;23;20054;-73
2020/12/20 08:02:39;;;;;;;68.88;39.15;;;8.20;99.90;;;;;;6212906;23;20092;-73
2020/12/20 08:05:14;;;;;;;71.20;40.33;;;8.30;99.90;;;;;;6214236;23;20012;-73
2020/12/20 08:07:40;;;;;;;70.28;40.53;;;8.30;99.90;;;;;;6213994;23;20063;-73
2020/12/20 08:10:05;;;;;;;82.38;44.50;;;8.30;99.90;;;;;;6214518;23;19996;-73
2020/12/20 08:12:34;;;;;;;84.28;44.35;;;8.30;99.90;;;;;;6214210;23;20079;-73
2020/12/20 08:15:06;;;;;;;83.82;45.70;;;8.30;99.90;;;;;;6213853;23;20008;-73
2020/12/20 08:17:32;;;;;;;79.90;44.80;;;8.30;99.90;;;;;;6211781;23;20005;-73
2020/12/20 08:20:03;;;;;;;80.88;43.95;;;8.30;99.90;;;;;;6214383;23;20429;-73
2020/12/20 08:22:31;;;;;;;80.47;43.08;;;8.40;99.90;;;;;;6212696;23;20095;-73
2020/12/20 08:24:58;;;;;;;80.63;42.88;;;8.40;99.90;;;;;;6213625;23;20005;-73
2020/12/20 08:27:29;;;;;;;84.78;46.03;;;8.40;99.90;;;;;;6212356;23;20028;-73
2020/12/20 08:29:56;;;;;;;84.65;46.75;;;8.40;99.90;;;;;;6213793;23;20082;-73
2020/12/20 08:32:24;;;;;;;87.50;47.30;;;8.40;99.90;;;;;;6213749;23;20000;-73
2020/12/20 08:34:50;;;;;;;85.53;47.58;;;8.50;99.90;;;;;;6212397;23;20009;-73
2020/12/20 08:37:18;;;;;;;80.65;46.65;;;8.40;99.90;;;;;;6213786;23;20027;-73
2020/12/20 08:39:44;;;;;;;83.18;45.60;;;8.40;99.90;;;;;;6212088;23;20093;-73
2020/12/20 08:42:12;;;;;;;80.95;42.13;;;8.40;99.90;;;;;;6212381;23;20009;-73
2020/12/20 08:44:39;;;;;;;75.00;42.90;;;8.30;99.90;;;;;;6212314;23;20079;-73
2020/12/20 08:47:15;;;;;;;81.05;43.55;;;8.40;99.90;;;;;;6212067;23;20031;-73
2020/12/20 08:49:53;;;;;;;76.78;42.03;;;8.40;99.90;;;;;;6214092;23;20329;-73
2020/12/20 08:52:19;;;;;;;78.20;42.78;;;8.40;99.90;;;;;;6212024;23;20004;-73
2020/12/20 08:54:51;;;;;;;80.53;44.70;;;8.50;99.90;;;;;;6214566;23;20046;-73
2020/12/20 08:57:17;;;;;;;80.85;44.88;;;8.50;99.90;;;;;;6214777;23;20062;-73
2020/12/20 08:59:45;;;;;;;89.63;49.75;;;8.50;99.90;;;;;;6213272;23;20048;-73
2020/12/20 09:02:23;;;;;;;87.95;47.88;;;8.50;99.90;;;;;;6214744;23;20164;-73
2020/12/20 09:04:57;;;;;;;83.50;47.20;;;8.60;99.90;;;;;;6213046;23;20009;-73
2020/12/20 09:07:45;;;;;;;86.53;48.30;;;8.60;99.90;;;;;;6214372;23;20005;-74
2020/12/20 09:10:31;;;;;;;84.60;48.95;;;8.60;99.90;;;;;;6211976;23;20328;-73
2020/12/20 09:13:03;;;;;;;88.82;47.78;;;8.60;99.90;;;;;;6213517;23;20154;-73
2020/12/20 09:15:28;;;;;;;93.28;50.00;;;8.60;99.90;;;;;;6213223;23;20000;-73
2020/12/20 09:17:55;;;;;;;95.13;48.45;;;8.60;99.90;;;;;;6213272;23;20100;-73
2020/12/20 09:20:27;;;;;;;91.15;50.83;;;8.60;99.90;;;;;;6213655;23;20059;-73
2020/12/20 09:23:00;;;;;;;106.68;55.03;;;8.60;99.90;;;;;;6211901;23;20332;-73
2020/12/20 09:25:37;;;;;;;116.40;49.80;;;8.70;99.90;;;;;;6213661;23;20035;-73
2020/12/20 09:28:08;;;;;;;96.63;50.78;;;8.60;99.90;;;;;;6213492;23;20001;-73
2020/12/20 09:30:46;;;;;;;103.78;52.65;;;8.60;99.90;;;;;;6211451;23;20341;-73
2020/12/20 09:33:32;;;;;;;97.88;51.90;;;8.70;99.90;;;;;;6211675;23;20008;-73
2020/12/20 09:36:18;;;;;;;105.13;56.08;;;8.70;99.90;;;;;;6213249;23;20028;-73
2020/12/20 09:38:49;;;;;;;100.75;53.45;;;8.70;99.90;;;;;;6213528;23;20009;-73
2020/12/20 09:41:17;;;;;;;99.82;53.50;;;8.70;99.90;;;;;;6213349;23;20467;-73
2020/12/20 09:43:45;;;;;;;92.43;51.70;;;8.70;99.90;;;;;;6213490;23;20008;-73
2020/12/20 09:46:23;;;;;;;100.00;51.15;;;8.80;99.90;;;;;;6211355;23;20282;-73
2020/12/20 09:48:50;;;;;;;91.03;50.28;;;8.80;99.90;;;;;;6212887;23;20001;-73
2020/12/20 09:51:17;;;;;;;95.72;49.25;;;8.90;99.90;;;;;;6211693;23;20007;-73
2020/12/20 09:53:43;;;;;;;89.78;48.08;;;8.90;99.90;;;;;;6213362;23;20004;-73
2020/12/20 09:56:09;;;;;;;95.68;50.15;;;9.00;99.90;;;;;;6211539;23;20004;-73
2020/12/20 09:58:34;;;;;;;95.03;51.13;;;9.00;99.90;;;;;;6213205;23;20333;-73
2020/12/20 10:01:00;;;;;;;92.05;53.35;;;9.00;99.90;;;;;;6213193;23;20336;-73
2020/12/20 10:03:27;;;;;;;95.35;52.63;;;8.90;99.90;;;;;;6213178;23;20080;-73
2020/12/20 10:05:57;;;;;;;95.72;52.38;;;8.90;99.90;;;;;;6211912;23;20091;-80
2020/12/20 10:08:24;;;;;;;99.25;53.28;;;8.80;99.90;;;;;;6212029;23;20436;-80
2020/12/20 10:10:53;;;;;;;101.25;53.88;;;8.90;99.90;;;;;;6213696;23;20029;-80
2020/12/20 10:13:20;;;;;;;97.13;52.70;;;8.90;99.90;;;;;;6213333;23;19997;-80
2020/12/20 10:15:46;;;;;;;92.75;52.15;;;8.80;99.90;;;;;;6212873;23;20001;-81
2020/12/20 10:18:12;;;;;;;91.57;52.42;;;8.80;99.90;;;;;;6212975;23;20058;-81
2020/12/20 10:20:38;;;;;;;93.97;52.63;;;8.90;99.90;;;;;;6213453;23;20008;-80
2020/12/20 10:23:04;;;;;;;87.45;50.60;;;8.90;99.90;;;;;;6208536;23;20437;-79
2020/12/20 10:25:30;;;;;;;90.00;52.22;;;8.80;99.90;;;;;;6206128;23;20008;-81
2020/12/20 10:27:56;;;;;;;87.90;51.60;;;8.80;99.90;;;;;;6203861;23;20486;-80
2020/12/20 10:30:22;;;;;;;89.40;51.30;;;8.80;99.90;;;;;;6203877;23;20063;-80
2020/12/20 10:32:48;;;;;;;83.43;49.75;;;8.90;99.90;;;;;;6201995;23;20009;-81
2020/12/20 10:35:15;;;;;;;88.95;48.67;;;8.90;99.90;;;;;;6207450;23;20092;-80
2020/12/20 10:37:40;;;;;;;85.43;49.38;;;8.90;99.90;;;;;;6206792;23;20004;-81
2020/12/20 10:40:06;;;;;;;97.45;51.58;;;9.00;99.90;;;;;;6210945;23;20091;-81
2020/12/20 10:42:31;;;;;;;81.68;49.03;;;9.00;99.90;;;;;;6205530;23;20058;-80
2020/12/20 10:44:57;;;;;;;78.38;45.33;;;9.00;99.90;;;;;;6210294;23;20433;-79
2020/12/20 10:47:23;;;;;;;79.88;44.65;;;9.00;99.90;;;;;;6206585;23;20080;-80
2020/12/20 10:49:51;;;;;;;76.50;43.95;;;9.00;99.90;;;;;;6206981;23;20336;-80
2020/12/20 10:52:16;;;;;;;69.45;41.90;;;9.10;99.90;;;;;;6206989;23;20004;-80
2020/12/20 10:54:43;;;;;;;72.72;41.88;;;9.00;99.90;;;;;;6209180;23;20083;-79
2020/12/20 10:57:09;;;;;;;69.82;42.60;;;9.00;99.90;;;;;;6205563;23;20016;-80
2020/12/20 10:59:34;;;;;;;68.20;40.63;;;9.00;99.90;;;;;;6207833;23;20163;-80
2020/12/20 11:02:00;;;;;;;74.57;42.60;;;9.00;99.90;;;;;;6204594;23;20019;-80
2020/12/20 11:04:26;;;;;;;71.60;41.03;;;9.00;99.90;;;;;;6209488;23;20001;-80
2020/12/20 11:06:59;;;;;;;76.38;41.47;;;9.00;99.90;;;;;;6206608;23;20008;-80
2020/12/20 11:09:26;;;;;;;67.40;39.72;;;9.00;99.90;;;;;;6209363;23;20032;-81
2020/12/20 11:11:52;;;;;;;68.25;39.15;;;9.00;99.90;;;;;;6205837;23;20024;-80
2020/12/20 11:14:18;;;;;;;61.60;39.05;;;9.00;99.90;;;;;;6209088;23;20085;-80
2020/12/20 11:16:44;;;;;;;63.03;39.50;;;9.00;99.90;;;;;;6205639;23;20111;-80
2020/12/20 11:19:09;;;;;;;66.18;37.10;;;9.10;99.90;;;;;;6209280;23;20095;-80
2020/12/20 11:21:36;;;;;;;65.93;38.15;;;9.10;99.90;;;;;;6207133;23;20004;-81
2020/12/20 11:24:02;;;;;;;64.65;36.92;;;9.10;99.90;;;;;;6207551;23;20005;-80
2020/12/20 11:26:28;;;;;;;69.78;38.17;;;9.20;99.90;;;;;;6206765;23;20012;-80
2020/12/20 11:28:54;;;;;;;63.28;35.70;;;9.20;99.90;;;;;;6208404;23;19997;-80
2020/12/20 11:31:24;;;;;;;63.40;35.08;;;9.30;99.90;;;;;;6206225;23;20001;-81
2020/12/20 11:33:51;;;;;;;68.75;41.10;;;9.30;99.90;;;;;;6209151;23;20005;-80
2020/12/20 11:36:27;;;;;;;62.47;34.95;;;9.30;99.90;;;;;;6210268;23;20453;-80
2020/12/20 11:38:53;;;;;;;66.80;38.35;;;9.30;99.90;;;;;;6211743;23;20011;-79
2020/12/20 11:41:23;;;;;;;63.97;38.42;;;9.30;99.90;;;;;;6213044;23;20008;-80
2020/12/20 11:43:50;;;;;;;66.13;36.90;;;9.40;99.90;;;;;;6214744;23;20058;-80
2020/12/20 11:46:16;;;;;;;65.90;39.58;;;9.40;99.90;;;;;;6214509;23;20001;-80
2020/12/20 11:48:42;;;;;;;66.50;37.55;;;9.40;99.90;;;;;;6214529;23;20075;-80
2020/12/20 11:51:09;;;;;;;67.10;38.00;;;9.40;99.90;;;;;;6212489;23;20039;-80
2020/12/20 11:53:36;;;;;;;66.80;37.00;;;9.40;99.90;;;;;;6212855;23;20083;-80
2020/12/20 11:56:08;;;;;;;63.50;36.88;;;9.40;99.90;;;;;;6213011;23;20004;-80
2020/12/20 11:58:34;;;;;;;60.33;36.90;;;9.40;99.90;;;;;;6215010;23;20008;-80
2020/12/20 12:01:00;;;;;;;64.53;37.25;;;9.50;99.90;;;;;;6214524;23;20004;-80
2020/12/20 12:03:25;;;;;;;70.32;38.30;;;9.40;99.90;;;;;;6214438;23;20094;-80
2020/12/20 12:05:52;;;;;;;66.65;36.63;;;9.50;99.90;;;;;;6214385;23;20008;-80
2020/12/20 12:08:17;;;;;;;68.32;34.97;;;9.50;99.90;;;;;;6212991;23;20443;-80
2020/12/20 12:10:46;;;;;;;54.13;32.08;;;9.50;99.90;;;;;;6214492;23;20000;-80
2020/12/20 12:13:12;;;;;;;60.45;35.22;;;9.50;99.90;;;;;;6214545;23;20011;-80
2020/12/20 12:15:39;;;;;;;60.33;34.95;;;9.50;99.90;;;;;;6212654;23;20004;-79
2020/12/20 12:18:08;;;;;;;56.67;33.67;;;9.60;99.90;;;;;;6214331;23;20068;-80
2020/12/20 12:20:34;;;;;;;61.45;34.35;;;9.60;99.90;;;;;;6214485;23;20020;-80
2020/12/20 12:22:59;;;;;;;64.45;35.33;;;9.60;99.90;;;;;;6214283;23;19997;-80
2020/12/20 12:25:26;;;;;;;55.55;32.28;;;9.60;99.90;;;;;;6212561;23;20087;-80
2020/12/20 12:27:51;;;;;;;58.50;32.42;;;9.50;99.90;;;;;;6214374;23;20005;-80
2020/12/20 12:30:17;;;;;;;65.78;35.90;;;9.50;99.90;;;;;;6214366;23;20011;-80
2020/12/20 12:32:43;;;;;;;54.17;31.73;;;9.50;99.90;;;;;;6214105;23;19996;-80
2020/12/20 12:35:09;;;;;;;58.65;31.92;;;9.50;99.90;;;;;;6214248;23;20001;-79
2020/12/20 12:37:35;;;;;;;47.90;28.48;;;9.50;99.90;;;;;;6214285;23;20035;-80
2020/12/20 12:40:02;;;;;;;52.90;29.75;;;9.50;99.90;;;;;;6212488;23;20004;-81